< < Back
Terminal Aerodrome Forecast


Current Version              Previous Versions:   1  2  3  4  5  6  7  8  9  

Terminal Aerodrome Forecast

911
FTUS42 KCAE 300236 AAA
TAFCAE
TAF AMD
KCAE 300236Z 3003/3024 VRB03KT P6SM OVC150
     FM300800 VRB03KT P6SM BKN100 OVC150
     FM301500 10007KT P6SM BKN050 OVC100=

Latest METAR

856
SAUS80 KWBC 300800
MTRCAE
METAR KCAE 300756Z 10004KT 10SM BKN150 23/15 A3010 RMK AO2 SLP188
T02330150


USA.gov is the U.S. government's official web portal to all federal, state and local government web resources and services.